createdAt,value
2018-04-27T00:00:06.604Z,1010.78
2018-04-27T00:01:06.601Z,1010.72
2018-04-27T00:02:06.611Z,1010.75
2018-04-27T00:03:06.607Z,1010.76
2018-04-27T00:04:06.616Z,1010.70
2018-04-27T00:05:06.631Z,1010.75
2018-04-27T00:06:06.619Z,1010.73
2018-04-27T00:07:06.622Z,1010.74
2018-04-27T00:08:09.250Z,1010.73
2018-04-27T00:09:06.627Z,1010.77
2018-04-27T00:10:06.624Z,1010.70
2018-04-27T00:11:06.626Z,1010.68
2018-04-27T00:12:06.631Z,1010.66
2018-04-27T00:13:06.631Z,1010.69
2018-04-27T00:14:06.637Z,1010.66
2018-04-27T00:15:06.634Z,1010.67
2018-04-27T00:16:06.649Z,1010.67
2018-04-27T00:17:06.689Z,1010.65
2018-04-27T00:18:06.633Z,1010.61
2018-04-27T00:19:06.662Z,1010.62
2018-04-27T00:20:06.642Z,1010.59
2018-04-27T00:21:06.640Z,1010.58
2018-04-27T00:22:06.641Z,1010.57
2018-04-27T00:23:06.652Z,1010.55
2018-04-27T00:24:06.658Z,1010.57
2018-04-27T00:25:06.646Z,1010.52
2018-04-27T00:26:06.652Z,1010.58
2018-04-27T00:27:06.660Z,1010.57
2018-04-27T00:28:06.664Z,1010.54
2018-04-27T00:29:06.668Z,1010.55
2018-04-27T00:30:06.679Z,1010.56
2018-04-27T00:31:06.661Z,1010.55
2018-04-27T00:32:06.668Z,1010.59
2018-04-27T00:33:06.671Z,1010.59
2018-04-27T00:34:06.677Z,1010.58
2018-04-27T00:35:06.682Z,1010.56
2018-04-27T00:36:06.687Z,1010.58
2018-04-27T00:37:06.676Z,1010.56
2018-04-27T00:38:06.681Z,1010.52
2018-04-27T00:39:06.676Z,1010.50
2018-04-27T00:40:06.685Z,1010.49
2018-04-27T00:41:06.678Z,1010.49
2018-04-27T00:42:06.688Z,1010.49
2018-04-27T00:43:06.680Z,1010.44
2018-04-27T00:44:06.683Z,1010.46
2018-04-27T00:45:06.693Z,1010.45
2018-04-27T00:46:06.688Z,1010.46
2018-04-27T00:47:06.715Z,1010.48
2018-04-27T00:48:06.702Z,1010.44
2018-04-27T00:49:06.702Z,1010.39
2018-04-27T00:50:06.710Z,1010.41
2018-04-27T00:51:06.699Z,1010.41
2018-04-27T00:52:06.708Z,1010.43
2018-04-27T00:53:06.700Z,1010.43
2018-04-27T00:54:06.706Z,1010.44
2018-04-27T00:55:06.708Z,1010.42
2018-04-27T00:56:06.741Z,1010.46
2018-04-27T00:57:06.754Z,1010.40
2018-04-27T00:58:06.712Z,1010.43
2018-04-27T00:59:06.735Z,1010.43
2018-04-27T01:00:06.723Z,1010.42
2018-04-27T01:01:06.720Z,1010.37
2018-04-27T01:02:06.723Z,1010.41
2018-04-27T01:03:06.725Z,1010.38
2018-04-27T01:04:06.727Z,1010.35
2018-04-27T01:05:06.730Z,1010.35
2018-04-27T01:06:06.725Z,1010.33
2018-04-27T01:07:06.732Z,1010.36
2018-04-27T01:08:06.735Z,1010.34
2018-04-27T01:09:06.742Z,1010.29
2018-04-27T01:10:06.734Z,1010.27
2018-04-27T01:11:06.745Z,1010.27
2018-04-27T01:12:06.746Z,1010.25
2018-04-27T01:13:06.739Z,1010.25
2018-04-27T01:14:06.744Z,1010.30
2018-04-27T01:15:06.753Z,1010.26
2018-04-27T01:16:06.751Z,1010.28
2018-04-27T01:17:06.755Z,1010.23
2018-04-27T01:18:06.759Z,1010.23
2018-04-27T01:19:06.753Z,1010.22
2018-04-27T01:20:06.761Z,1010.19
2018-04-27T01:21:06.755Z,1010.19
2018-04-27T01:22:06.765Z,1010.19
2018-04-27T01:23:06.767Z,1010.18
2018-04-27T01:24:06.773Z,1010.17
2018-04-27T01:25:06.762Z,1010.18
2018-04-27T01:26:06.775Z,1010.15
2018-04-27T01:27:06.765Z,1010.10
2018-04-27T01:28:06.771Z,1010.11
2018-04-27T01:29:06.773Z,1010.10
2018-04-27T01:30:06.778Z,1010.10
2018-04-27T01:31:06.773Z,1010.11
2018-04-27T01:32:06.785Z,1010.12
2018-04-27T01:33:06.784Z,1010.09
2018-04-27T01:34:06.785Z,1010.08
2018-04-27T01:35:06.782Z,1010.08
2018-04-27T01:36:07.767Z,1010.08
2018-04-27T01:37:06.793Z,1010.11
2018-04-27T01:38:06.793Z,1010.08
2018-04-27T01:39:06.797Z,1010.11
2018-04-27T01:40:06.793Z,1010.10
2018-04-27T01:41:06.791Z,1010.09
2018-04-27T01:42:06.792Z,1010.05
2018-04-27T01:43:06.808Z,1010.06
2018-04-27T01:44:06.802Z,1010.02
2018-04-27T01:45:06.796Z,1010.02
2018-04-27T01:46:06.803Z,1009.99
2018-04-27T01:47:06.806Z,1010.00
2018-04-27T01:48:06.831Z,1009.99
2018-04-27T01:49:06.816Z,1009.94
2018-04-27T01:50:06.810Z,1009.93
2018-04-27T01:51:06.814Z,1009.96
2018-04-27T01:52:06.817Z,1009.92
2018-04-27T01:53:06.817Z,1009.94
2018-04-27T01:54:06.817Z,1009.91
2018-04-27T01:55:06.813Z,1009.91
2018-04-27T01:56:07.770Z,1009.90
2018-04-27T01:57:06.825Z,1009.94
2018-04-27T01:58:06.834Z,1009.93
2018-04-27T01:59:06.827Z,1009.92
2018-04-27T02:00:06.824Z,1009.94
2018-04-27T02:01:06.835Z,1009.98
2018-04-27T02:02:06.836Z,1009.98
2018-04-27T02:03:06.832Z,1009.96
2018-04-27T02:04:06.838Z,1010.02
2018-04-27T02:05:06.837Z,1010.00
2018-04-27T02:06:06.840Z,1010.03
2018-04-27T02:07:06.847Z,1010.03
2018-04-27T02:08:06.842Z,1009.98
2018-04-27T02:09:06.844Z,1010.00
2018-04-27T02:10:06.835Z,1009.96
2018-04-27T02:11:06.829Z,1009.94
2018-04-27T02:12:06.839Z,1009.90
2018-04-27T02:13:06.835Z,1009.90
2018-04-27T02:14:06.836Z,1009.89
2018-04-27T02:15:06.848Z,1009.90
2018-04-27T02:16:06.853Z,1009.92
2018-04-27T02:17:06.838Z,1009.92
2018-04-27T02:18:06.842Z,1009.92
2018-04-27T02:19:06.847Z,1009.89
2018-04-27T02:20:06.848Z,1009.86
2018-04-27T02:21:06.852Z,1009.84
2018-04-27T02:22:06.851Z,1009.81
2018-04-27T02:23:06.853Z,1009.86
2018-04-27T02:24:06.858Z,1009.87
2018-04-27T02:25:06.856Z,1009.86
2018-04-27T02:26:06.863Z,1009.87
2018-04-27T02:27:06.859Z,1009.82
2018-04-27T02:28:06.859Z,1009.83
2018-04-27T02:29:06.864Z,1009.79
2018-04-27T02:30:06.863Z,1009.79
2018-04-27T02:31:06.866Z,1009.77
2018-04-27T02:32:06.863Z,1009.74
2018-04-27T02:33:06.877Z,1009.75
2018-04-27T02:34:06.872Z,1009.72
2018-04-27T02:35:06.882Z,1009.72
2018-04-27T02:36:06.879Z,1009.71
2018-04-27T02:37:06.874Z,1009.67
2018-04-27T02:38:06.882Z,1009.68
2018-04-27T02:39:06.890Z,1009.68
2018-04-27T02:40:06.884Z,1009.67
2018-04-27T02:41:06.881Z,1009.64
2018-04-27T02:42:06.883Z,1009.67
2018-04-27T02:43:06.880Z,1009.67
2018-04-27T02:44:06.886Z,1009.66
2018-04-27T02:45:06.885Z,1009.69
2018-04-27T02:46:06.890Z,1009.66
2018-04-27T02:47:06.888Z,1009.70
2018-04-27T02:48:06.898Z,1009.65
2018-04-27T02:49:06.889Z,1009.67
2018-04-27T02:50:06.901Z,1009.68
2018-04-27T02:51:06.892Z,1009.66
2018-04-27T02:52:06.902Z,1009.67
2018-04-27T02:53:06.903Z,1009.65
2018-04-27T02:54:06.898Z,1009.64
2018-04-27T02:55:06.905Z,1009.67
2018-04-27T02:57:06.904Z,1009.64
2018-04-27T02:59:06.916Z,1009.66
2018-04-27T03:00:06.913Z,1009.68
2018-04-27T03:01:06.910Z,1009.68
2018-04-27T03:02:06.921Z,1009.69
2018-04-27T03:03:06.913Z,1009.69
2018-04-27T03:04:06.919Z,1009.70
2018-04-27T03:05:06.921Z,1009.66
2018-04-27T03:06:06.920Z,1009.65
2018-04-27T03:07:06.935Z,1009.65
2018-04-27T03:08:06.924Z,1009.65
2018-04-27T03:09:06.923Z,1009.63
2018-04-27T03:10:06.929Z,1009.60
2018-04-27T03:11:06.928Z,1009.59
2018-04-27T03:12:06.935Z,1009.61
2018-04-27T03:13:06.941Z,1009.62
2018-04-27T03:14:06.933Z,1009.62
2018-04-27T03:15:06.940Z,1009.61
2018-04-27T03:16:06.942Z,1009.61
2018-04-27T03:17:06.935Z,1009.62
2018-04-27T03:18:06.945Z,1009.60
2018-04-27T03:19:06.937Z,1009.61
2018-04-27T03:20:06.937Z,1009.57
2018-04-27T03:21:06.950Z,1009.59
2018-04-27T03:22:06.948Z,1009.57
2018-04-27T03:23:06.954Z,1009.54
2018-04-27T03:24:07.065Z,1009.56
2018-04-27T03:25:06.953Z,1009.52
2018-04-27T03:26:06.962Z,1009.49
2018-04-27T03:27:06.956Z,1009.49
2018-04-27T03:28:06.956Z,1009.45
2018-04-27T03:29:06.957Z,1009.47
2018-04-27T03:30:06.956Z,1009.47
2018-04-27T03:31:06.970Z,1009.49
2018-04-27T03:32:06.956Z,1009.46
2018-04-27T03:33:06.968Z,1009.46
2018-04-27T03:34:06.969Z,1009.46
2018-04-27T03:35:06.965Z,1009.45
2018-04-27T03:36:06.972Z,1009.44
2018-04-27T03:37:06.965Z,1009.45
2018-04-27T03:38:06.971Z,1009.43
2018-04-27T03:39:06.974Z,1009.43
2018-04-27T03:40:06.983Z,1009.40
2018-04-27T03:41:06.980Z,1009.43
2018-04-27T03:42:06.984Z,1009.41
2018-04-27T03:43:06.981Z,1009.40
2018-04-27T03:44:06.983Z,1009.39
2018-04-27T03:45:07.027Z,1009.39
2018-04-27T03:46:06.982Z,1009.35
2018-04-27T03:47:06.985Z,1009.36
2018-04-27T03:48:06.996Z,1009.37
2018-04-27T03:49:06.984Z,1009.36
2018-04-27T03:50:07.028Z,1009.37
2018-04-27T03:51:06.987Z,1009.37
2018-04-27T03:52:06.988Z,1009.33
2018-04-27T03:53:06.996Z,1009.38
2018-04-27T03:54:06.992Z,1009.38
2018-04-27T03:55:07.005Z,1009.32
2018-04-27T03:56:07.003Z,1009.39
2018-04-27T03:57:06.995Z,1009.35
2018-04-27T03:58:07.000Z,1009.38
2018-04-27T03:59:07.000Z,1009.33
2018-04-27T04:00:07.002Z,1009.34
2018-04-27T04:01:07.016Z,1009.36
2018-04-27T04:02:07.002Z,1009.33
2018-04-27T04:03:07.013Z,1009.34
2018-04-27T04:04:07.006Z,1009.34
2018-04-27T04:05:07.015Z,1009.31
2018-04-27T04:06:07.013Z,1009.33
2018-04-27T04:07:07.023Z,1009.31
2018-04-27T04:08:07.019Z,1009.32
2018-04-27T04:09:07.014Z,1009.30
2018-04-27T04:10:07.024Z,1009.34
2018-04-27T04:11:07.018Z,1009.31
2018-04-27T04:12:07.032Z,1009.31
2018-04-27T04:13:07.025Z,1009.29
2018-04-27T04:14:07.027Z,1009.29
2018-04-27T04:15:07.030Z,1009.25
2018-04-27T04:16:07.035Z,1009.26
2018-04-27T04:17:07.036Z,1009.27
2018-04-27T04:18:07.031Z,1009.28
2018-04-27T04:19:07.035Z,1009.26
2018-04-27T04:20:07.041Z,1009.25
2018-04-27T04:21:07.032Z,1009.21
2018-04-27T04:22:07.039Z,1009.18
2018-04-27T04:23:07.042Z,1009.27
2018-04-27T04:24:07.039Z,1009.25
2018-04-27T04:25:07.048Z,1009.25
2018-04-27T04:26:07.047Z,1009.21
2018-04-27T04:27:07.051Z,1009.21
2018-04-27T04:28:07.052Z,1009.22
2018-04-27T04:29:07.060Z,1009.21
2018-04-27T04:30:07.794Z,1009.20
2018-04-27T04:31:07.075Z,1009.21
2018-04-27T04:32:07.054Z,1009.23
2018-04-27T04:33:07.053Z,1009.25
2018-04-27T04:34:07.051Z,1009.24
2018-04-27T04:35:07.061Z,1009.24
2018-04-27T04:36:07.063Z,1009.22
2018-04-27T04:37:07.060Z,1009.23
2018-04-27T04:38:07.073Z,1009.25
2018-04-27T04:39:07.068Z,1009.25
2018-04-27T04:40:07.067Z,1009.26
2018-04-27T04:41:07.069Z,1009.23
2018-04-27T04:42:07.413Z,1009.25
2018-04-27T04:43:07.336Z,1009.29
2018-04-27T04:44:08.598Z,1009.28
2018-04-27T04:45:07.087Z,1009.32
2018-04-27T04:46:07.136Z,1009.30
2018-04-27T04:47:07.088Z,1009.35
2018-04-27T04:48:07.088Z,1009.38
2018-04-27T04:49:07.085Z,1009.35
2018-04-27T04:50:07.084Z,1009.35
2018-04-27T04:51:08.356Z,1009.35
2018-04-27T04:52:07.085Z,1009.37
2018-04-27T04:53:07.086Z,1009.34
2018-04-27T04:54:07.097Z,1009.37
2018-04-27T04:55:07.096Z,1009.34
2018-04-27T04:56:07.089Z,1009.31
2018-04-27T04:57:07.102Z,1009.34
2018-04-27T04:58:07.098Z,1009.34
2018-04-27T04:59:07.789Z,1009.34
2018-04-27T05:00:07.103Z,1009.36
2018-04-27T05:01:07.100Z,1009.37
2018-04-27T05:02:07.097Z,1009.39
2018-04-27T05:03:07.101Z,1009.40
2018-04-27T05:04:07.107Z,1009.41
2018-04-27T05:05:07.108Z,1009.39
2018-04-27T05:06:07.109Z,1009.38
2018-04-27T05:07:07.108Z,1009.37
2018-04-27T05:08:07.112Z,1009.34
2018-04-27T05:09:07.148Z,1009.37
2018-04-27T05:10:07.113Z,1009.36
2018-04-27T05:11:07.117Z,1009.32
2018-04-27T05:12:07.117Z,1009.35
2018-04-27T05:13:07.122Z,1009.35
2018-04-27T05:14:07.121Z,1009.35
2018-04-27T05:15:07.118Z,1009.26
2018-04-27T05:16:07.127Z,1009.27
2018-04-27T05:17:07.120Z,1009.27
2018-04-27T05:18:07.135Z,1009.24
2018-04-27T05:19:07.131Z,1009.28
2018-04-27T05:20:07.126Z,1009.27
2018-04-27T05:21:07.133Z,1009.25
2018-04-27T05:22:07.161Z,1009.23
2018-04-27T05:23:07.139Z,1009.22
2018-04-27T05:24:07.140Z,1009.18
2018-04-27T05:25:07.159Z,1009.18
2018-04-27T05:26:07.143Z,1009.18
2018-04-27T05:27:07.140Z,1009.15
2018-04-27T05:28:07.150Z,1009.16
2018-04-27T05:29:07.151Z,1009.10
2018-04-27T05:30:07.151Z,1009.11
2018-04-27T05:31:07.144Z,1009.10
2018-04-27T05:32:07.149Z,1009.04
2018-04-27T05:33:07.159Z,1009.03
2018-04-27T05:34:07.156Z,1009.05
2018-04-27T05:35:07.161Z,1009.02
2018-04-27T05:36:07.168Z,1009.02
2018-04-27T05:37:07.169Z,1009.03
2018-04-27T05:38:07.161Z,1009.03
2018-04-27T05:39:07.165Z,1009.04
2018-04-27T05:40:07.202Z,1009.07
2018-04-27T05:41:07.184Z,1009.07
2018-04-27T05:42:07.179Z,1009.07
2018-04-27T05:43:07.167Z,1009.11
2018-04-27T05:44:07.182Z,1009.05
2018-04-27T05:45:07.179Z,1009.15
2018-04-27T05:46:07.182Z,1009.44
2018-04-27T05:47:07.178Z,1009.31
2018-04-27T05:48:07.185Z,1009.89
2018-04-27T05:49:07.185Z,1009.60
2018-04-27T05:50:07.189Z,1009.87
2018-04-27T05:51:07.183Z,1009.90
2018-04-27T05:52:07.194Z,1010.04
2018-04-27T05:53:07.197Z,1010.06
2018-04-27T05:54:07.193Z,1010.00
2018-04-27T05:55:07.200Z,1010.19
2018-04-27T05:56:07.199Z,1010.23
2018-04-27T05:57:07.213Z,1010.31
2018-04-27T05:58:07.208Z,1010.31
2018-04-27T05:59:07.811Z,1010.28
2018-04-27T06:00:07.228Z,1010.12
2018-04-27T06:02:00.170Z,1009.97
2018-04-27T06:03:00.141Z,1010.04
2018-04-27T06:04:53.919Z,1010.08
2018-04-27T06:05:53.992Z,1009.94
2018-04-27T06:06:53.926Z,1010.02
2018-04-27T06:07:53.928Z,1010.31
2018-04-27T06:08:53.938Z,1010.36
2018-04-27T06:09:53.942Z,1010.39
2018-04-27T06:10:53.951Z,1010.47
2018-04-27T06:11:53.969Z,1010.49
2018-04-27T06:12:53.966Z,1010.41
2018-04-27T06:13:53.975Z,1010.23
2018-04-27T06:14:53.984Z,1010.19
2018-04-27T06:15:53.998Z,1010.23
2018-04-27T06:16:54.009Z,1010.42
2018-04-27T06:17:54.016Z,1010.34
2018-04-27T06:18:54.021Z,1010.33
2018-04-27T06:19:54.039Z,1010.38
2018-04-27T06:20:54.043Z,1010.31
2018-04-27T06:21:54.072Z,1010.32
2018-04-27T06:22:54.073Z,1010.24
2018-04-27T06:23:54.118Z,1010.14
2018-04-27T06:24:54.105Z,1010.31
2018-04-27T06:25:54.100Z,1010.33
2018-04-27T06:26:54.115Z,1010.43
2018-04-27T06:27:54.187Z,1010.27
2018-04-27T06:28:54.191Z,1010.27
2018-04-27T06:29:54.137Z,1010.25
2018-04-27T06:30:54.218Z,1010.39
2018-04-27T06:31:54.222Z,1010.49
2018-04-27T06:32:54.178Z,1010.41
2018-04-27T06:33:54.210Z,1010.15
2018-04-27T06:34:54.204Z,1010.20
2018-04-27T06:35:54.210Z,1010.12
2018-04-27T06:36:54.218Z,1010.34
2018-04-27T06:37:54.241Z,1010.33
2018-04-27T06:38:54.242Z,1010.32
2018-04-27T06:39:54.261Z,1009.91
2018-04-27T06:40:54.270Z,1010.67
2018-04-27T06:41:54.280Z,1010.63
2018-04-27T06:57:04.782Z,1010.55
2018-04-27T06:58:04.759Z,1010.55
2018-04-27T06:59:58.223Z,1010.60
2018-04-27T07:00:57.722Z,1010.47
2018-04-27T07:01:57.746Z,1010.58
2018-04-27T07:02:57.738Z,1010.57
2018-04-27T07:03:57.748Z,1010.55
2018-04-27T07:04:57.757Z,1010.53
2018-04-27T07:05:57.773Z,1010.52
2018-04-27T07:06:57.783Z,1010.29
2018-04-27T07:07:57.800Z,1010.59
2018-04-27T07:08:57.814Z,1010.52
2018-04-27T07:09:57.821Z,1010.50
2018-04-27T07:10:57.855Z,1010.42
2018-04-27T07:11:57.871Z,1009.63
2018-04-27T07:12:57.872Z,1009.87
2018-04-27T07:13:57.877Z,1010.01
2018-04-27T07:14:58.633Z,1009.96
2018-04-27T07:15:57.915Z,1009.86
2018-04-27T07:16:57.953Z,1009.88
2018-04-27T07:17:57.938Z,1009.94
2018-04-27T07:18:59.711Z,1009.82
2018-04-27T07:19:57.967Z,1009.68
2018-04-27T07:20:57.985Z,1009.86
2018-04-27T07:21:58.644Z,1009.80
2018-04-27T07:22:58.011Z,1009.89
2018-04-27T07:23:58.046Z,1009.95
2018-04-27T07:24:58.050Z,1010.04
2018-04-27T07:25:58.146Z,1009.46
2018-04-27T07:26:58.088Z,1010.11
2018-04-27T07:27:58.085Z,1010.04
2018-04-27T07:28:58.102Z,1010.13
2018-04-27T07:29:58.116Z,1010.09
2018-04-27T07:30:58.130Z,1010.10
2018-04-27T07:31:58.149Z,1009.72
2018-04-27T07:32:58.167Z,1009.79
2018-04-27T07:33:58.177Z,1009.97
2018-04-27T07:34:58.301Z,1009.94
2018-04-27T07:35:58.209Z,1010.15
2018-04-27T07:36:58.229Z,1010.11
2018-04-27T07:37:58.296Z,1010.04
2018-04-27T07:38:58.255Z,1009.92
2018-04-27T07:39:58.291Z,1010.03
2018-04-27T07:40:58.280Z,1010.12
2018-04-27T07:41:58.301Z,1010.07
2018-04-27T07:42:58.316Z,1010.02
2018-04-27T07:43:58.326Z,1009.97
2018-04-27T07:44:58.349Z,1009.94
2018-04-27T07:45:58.355Z,1009.93
2018-04-27T07:46:58.374Z,1009.96
2018-04-27T07:47:58.389Z,1009.91
2018-04-27T07:48:58.404Z,1009.92
2018-04-27T07:49:58.427Z,1009.86
2018-04-27T07:50:58.434Z,1009.82
2018-04-27T07:51:58.473Z,1009.89
2018-04-27T07:52:58.468Z,1009.80
2018-04-27T07:53:58.489Z,1009.73
2018-04-27T07:54:58.498Z,1009.69
2018-04-27T07:56:58.528Z,1009.63
2018-04-27T07:57:58.554Z,1009.61
2018-04-27T07:58:58.566Z,1009.56
2018-04-27T07:59:58.578Z,1009.49
2018-04-27T08:00:58.666Z,1009.48
2018-04-27T08:01:58.618Z,1009.42
2018-04-27T08:02:58.653Z,1009.38
2018-04-27T08:03:58.647Z,1009.28
2018-04-27T08:04:58.665Z,1009.24
2018-04-27T08:05:58.680Z,1009.25
2018-04-27T08:06:58.692Z,1009.21
2018-04-27T08:07:58.705Z,1009.22
2018-04-27T08:08:58.724Z,1009.19
2018-04-27T08:09:58.736Z,1009.15
2018-04-27T08:10:58.750Z,1009.08
2018-04-27T08:11:58.771Z,1009.01
2018-04-27T08:12:58.788Z,1009.04
2018-04-27T08:13:58.800Z,1009.02
2018-04-27T08:14:58.812Z,1009.05
2018-04-27T08:15:58.832Z,1009.06
2018-04-27T08:16:58.840Z,1009.06
2018-04-27T08:17:58.864Z,1009.06
2018-04-27T08:18:58.876Z,1009.12
2018-04-27T08:19:58.893Z,1009.10
2018-04-27T08:20:58.901Z,1009.05
2018-04-27T08:21:58.913Z,1009.08
2018-04-27T08:22:58.936Z,1009.12
2018-04-27T08:23:58.946Z,1009.12
2018-04-27T08:24:58.961Z,1009.10
2018-04-27T08:25:58.992Z,1009.02
2018-04-27T08:26:58.994Z,1008.98
2018-04-27T08:27:59.003Z,1008.93
2018-04-27T08:28:59.022Z,1008.93
2018-04-27T08:29:59.038Z,1008.93
2018-04-27T08:30:59.053Z,1008.90
2018-04-27T08:31:59.065Z,1008.84
2018-04-27T08:32:59.079Z,1008.84
2018-04-27T08:33:59.095Z,1008.82
2018-04-27T08:34:59.118Z,1008.80
2018-04-27T08:35:59.120Z,1008.81
2018-04-27T08:36:59.134Z,1008.79
2018-04-27T08:37:59.149Z,1008.72
2018-04-27T08:38:59.161Z,1008.64
2018-04-27T08:39:59.179Z,1008.58
2018-04-27T08:40:59.195Z,1008.57
2018-04-27T08:41:59.228Z,1008.52
2018-04-27T08:42:59.216Z,1008.51
2018-04-27T08:43:59.238Z,1008.54
2018-04-27T08:44:59.246Z,1008.53
2018-04-27T08:45:59.265Z,1008.48
2018-04-27T08:46:59.273Z,1008.51
2018-04-27T08:47:59.292Z,1008.48
2018-04-27T08:48:59.306Z,1008.49
2018-04-27T08:49:59.317Z,1008.56
2018-04-27T08:50:59.323Z,1008.51
2018-04-27T08:51:59.343Z,1008.48
2018-04-27T08:52:59.364Z,1008.48
2018-04-27T08:53:59.373Z,1008.42
2018-04-27T08:54:59.379Z,1008.38
2018-04-27T08:55:59.389Z,1008.39
2018-04-27T08:56:59.406Z,1008.40
2018-04-27T08:57:59.419Z,1008.35
2018-04-27T08:58:59.421Z,1008.34
2018-04-27T08:59:59.435Z,1008.36
2018-04-27T09:00:59.445Z,1008.38
2018-04-27T09:01:59.454Z,1008.40
2018-04-27T09:02:59.465Z,1008.45
2018-04-27T09:03:59.481Z,1008.43
2018-04-27T09:04:59.487Z,1008.47
2018-04-27T09:05:59.501Z,1008.47
2018-04-27T09:06:59.512Z,1008.46
2018-04-27T09:07:59.520Z,1008.45
2018-04-27T09:08:59.532Z,1008.45
2018-04-27T09:09:59.540Z,1008.42
2018-04-27T09:10:59.549Z,1008.49
2018-04-27T09:11:59.567Z,1008.42
2018-04-27T09:12:59.598Z,1008.44
2018-04-27T09:13:59.581Z,1008.43
2018-04-27T09:14:59.590Z,1008.46
2018-04-27T09:15:59.609Z,1008.43
2018-04-27T09:16:59.612Z,1008.44
2018-04-27T09:17:59.626Z,1008.39
2018-04-27T09:18:59.640Z,1008.42
2018-04-27T09:19:59.652Z,1008.47
2018-04-27T09:20:59.657Z,1008.44
2018-04-27T09:21:59.667Z,1008.40
2018-04-27T09:22:59.703Z,1008.40
2018-04-27T09:23:59.687Z,1008.43
2018-04-27T09:24:59.691Z,1008.43
2018-04-27T09:25:59.699Z,1008.41
2018-04-27T09:26:59.738Z,1008.34
2018-04-27T09:27:59.727Z,1008.35
2018-04-27T09:28:59.742Z,1008.39
2018-04-27T09:29:59.746Z,1008.39
2018-04-27T09:30:59.758Z,1008.43
2018-04-27T09:31:59.761Z,1008.55
2018-04-27T09:32:59.774Z,1008.79
2018-04-27T09:33:59.789Z,1008.64
2018-04-27T09:34:59.804Z,1008.66
2018-04-27T09:35:59.810Z,1008.62
2018-04-27T09:36:59.823Z,1008.44
2018-04-27T09:37:59.822Z,1008.38
2018-04-27T09:38:59.836Z,1008.35
2018-04-27T09:39:59.853Z,1008.36
2018-04-27T09:40:59.864Z,1008.40
2018-04-27T09:41:59.875Z,1008.40
2018-04-27T09:42:59.883Z,1008.36
2018-04-27T09:43:59.962Z,1008.35
2018-04-27T09:44:59.909Z,1008.29
2018-04-27T09:45:59.914Z,1008.27
2018-04-27T09:46:59.925Z,1008.27
2018-04-27T09:47:59.944Z,1008.27
2018-04-27T09:48:59.976Z,1008.23
2018-04-27T09:49:59.966Z,1008.16
2018-04-27T09:50:59.982Z,1008.17
2018-04-27T09:51:59.983Z,1008.17
2018-04-27T09:52:59.997Z,1008.16
2018-04-27T09:54:00.019Z,1008.15
2018-04-27T09:55:00.023Z,1008.11
2018-04-27T09:56:00.033Z,1008.08
2018-04-27T09:57:00.052Z,1008.05
2018-04-27T09:58:00.052Z,1008.05
2018-04-27T09:59:00.063Z,1008.05
2018-04-27T10:00:00.082Z,1008.05
2018-04-27T10:01:00.090Z,1008.00
2018-04-27T10:02:00.108Z,1007.99
2018-04-27T10:03:00.118Z,1007.94
2018-04-27T10:04:00.121Z,1007.89
2018-04-27T10:05:00.143Z,1007.88
2018-04-27T10:06:00.148Z,1007.81
2018-04-27T10:07:00.157Z,1007.79
2018-04-27T10:08:00.177Z,1007.80
2018-04-27T10:09:00.183Z,1007.79
2018-04-27T10:10:00.199Z,1007.80
2018-04-27T10:11:00.242Z,1007.79
2018-04-27T10:12:00.261Z,1007.79
2018-04-27T10:13:00.263Z,1007.79
2018-04-27T10:14:00.290Z,1007.74
2018-04-27T10:15:00.326Z,1007.70
2018-04-27T10:16:00.279Z,1007.72
2018-04-27T10:17:00.297Z,1007.73
2018-04-27T10:18:00.301Z,1007.75
2018-04-27T10:19:00.304Z,1007.75
2018-04-27T10:20:00.322Z,1007.69
2018-04-27T10:21:00.346Z,1007.72
2018-04-27T10:22:00.338Z,1007.73
2018-04-27T10:23:00.366Z,1007.74
2018-04-27T10:24:01.294Z,1007.70
2018-04-27T10:25:00.416Z,1007.64
2018-04-27T10:26:00.399Z,1007.67
2018-04-27T10:27:00.398Z,1007.72
2018-04-27T10:28:00.414Z,1007.70
2018-04-27T10:29:00.417Z,1007.74
2018-04-27T10:30:00.427Z,1007.77
2018-04-27T10:31:00.451Z,1007.71
2018-04-27T10:32:00.454Z,1007.71
2018-04-27T10:33:00.531Z,1007.67
2018-04-27T10:34:00.490Z,1007.64
2018-04-27T10:35:00.508Z,1007.64
2018-04-27T10:36:00.505Z,1007.65
2018-04-27T10:37:00.541Z,1007.68
2018-04-27T10:38:00.542Z,1007.64
2018-04-27T10:39:00.550Z,1007.58
2018-04-27T10:40:00.550Z,1007.62
2018-04-27T10:41:00.566Z,1007.51
2018-04-27T10:42:00.573Z,1007.50
2018-04-27T10:43:00.680Z,1007.46
2018-04-27T10:44:00.616Z,1007.38
2018-04-27T10:45:00.615Z,1007.42
2018-04-27T10:46:00.641Z,1007.35
2018-04-27T10:47:00.634Z,1007.29
2018-04-27T10:48:00.644Z,1007.30
2018-04-27T10:49:00.654Z,1007.31
2018-04-27T10:50:00.674Z,1007.31
2018-04-27T10:51:00.682Z,1007.36
2018-04-27T10:52:00.709Z,1007.32
2018-04-27T10:53:00.743Z,1007.31
2018-04-27T10:54:00.716Z,1007.25
2018-04-27T10:55:00.755Z,1007.18
2018-04-27T10:56:00.772Z,1007.18
2018-04-27T10:57:00.775Z,1007.16
2018-04-27T10:58:00.779Z,1007.13
2018-04-27T10:59:00.783Z,1007.20
2018-04-27T11:00:00.794Z,1007.20
2018-04-27T11:01:00.812Z,1007.12
2018-04-27T11:02:00.813Z,1007.13
2018-04-27T11:03:00.829Z,1007.05
2018-04-27T11:04:00.852Z,1007.02
2018-04-27T11:05:00.870Z,1006.95
2018-04-27T11:06:00.870Z,1006.94
2018-04-27T11:07:00.878Z,1006.98
2018-04-27T11:08:00.892Z,1007.01
2018-04-27T11:09:00.899Z,1006.88
2018-04-27T11:10:00.921Z,1006.83
2018-04-27T11:11:01.913Z,1006.77
2018-04-27T11:12:00.939Z,1006.77
2018-04-27T11:13:00.954Z,1006.71
2018-04-27T11:14:00.959Z,1006.71
2018-04-27T11:15:00.967Z,1006.73
2018-04-27T11:16:00.992Z,1006.69
2018-04-27T11:17:01.061Z,1006.69
2018-04-27T11:18:01.008Z,1006.71
2018-04-27T11:19:01.069Z,1006.72
2018-04-27T11:20:01.030Z,1006.76
2018-04-27T11:21:01.037Z,1006.76
2018-04-27T11:22:01.058Z,1006.70
2018-04-27T11:23:01.065Z,1006.66
2018-04-27T11:24:01.067Z,1006.66
2018-04-27T11:25:01.114Z,1006.64
2018-04-27T11:26:01.092Z,1006.62
2018-04-27T11:27:01.109Z,1006.57
2018-04-27T11:28:01.113Z,1006.56
2018-04-27T11:29:01.131Z,1006.59
2018-04-27T11:30:01.155Z,1006.60
2018-04-27T11:31:01.152Z,1006.59
2018-04-27T11:32:01.157Z,1006.53
2018-04-27T11:33:01.231Z,1006.58
2018-04-27T11:34:01.177Z,1006.52
2018-04-27T11:35:01.190Z,1006.44
2018-04-27T11:36:01.210Z,1006.42
2018-04-27T11:37:01.272Z,1006.43
2018-04-27T11:38:01.267Z,1006.39
2018-04-27T11:39:01.256Z,1006.38
2018-04-27T11:40:01.307Z,1006.34
2018-04-27T11:41:01.315Z,1006.46
2018-04-27T11:42:01.328Z,1006.51
2018-04-27T11:43:01.311Z,1006.45
2018-04-27T11:44:01.320Z,1006.48
2018-04-27T11:45:01.356Z,1006.47
2018-04-27T11:46:01.345Z,1006.44
2018-04-27T11:47:01.364Z,1006.45
2018-04-27T11:48:01.329Z,1006.46
2018-04-27T11:49:01.377Z,1006.45
2018-04-27T11:50:01.391Z,1006.46
2018-04-27T11:51:01.407Z,1006.45
2018-04-27T11:52:01.414Z,1006.46
2018-04-27T11:53:01.408Z,1006.40
2018-04-27T11:54:01.375Z,1006.42
2018-04-27T11:55:01.376Z,1006.35
2018-04-27T11:56:01.389Z,1006.30
2018-04-27T11:57:01.399Z,1006.26
2018-04-27T11:58:01.404Z,1006.17
2018-04-27T11:59:01.412Z,1006.15
2018-04-27T12:00:01.440Z,1006.13
2018-04-27T12:01:01.437Z,1006.09
2018-04-27T12:02:01.452Z,1006.11
2018-04-27T12:03:01.452Z,1006.11
2018-04-27T12:04:01.463Z,1006.13
2018-04-27T12:05:01.477Z,1006.08
2018-04-27T12:06:01.480Z,1006.12
2018-04-27T12:07:01.495Z,1006.06
2018-04-27T12:08:01.504Z,1006.06
2018-04-27T12:09:01.506Z,1006.06
2018-04-27T12:10:01.529Z,1006.01
2018-04-27T12:11:01.524Z,1006.01
2018-04-27T12:12:01.543Z,1005.97
2018-04-27T12:13:01.552Z,1005.93
2018-04-27T12:14:01.550Z,1005.87
2018-04-27T12:15:01.563Z,1005.92
2018-04-27T12:16:01.576Z,1005.91
2018-04-27T12:17:01.577Z,1005.93
2018-04-27T12:18:01.595Z,1005.86
2018-04-27T12:19:01.663Z,1005.80
2018-04-27T12:20:01.614Z,1005.84
2018-04-27T12:21:01.618Z,1005.81
2018-04-27T12:22:01.622Z,1005.85
2018-04-27T12:23:01.643Z,1005.83
2018-04-27T12:24:01.644Z,1005.74
2018-04-27T12:25:01.653Z,1005.72